createdAt,value
2022-10-20T00:01:18.966Z,101441.50
2022-10-20T00:03:46.757Z,101445.94
2022-10-20T00:06:25.694Z,101436.28
2022-10-20T00:08:53.995Z,101425.31
2022-10-20T00:11:21.980Z,101435.69
2022-10-20T00:13:50.877Z,101437.56
2022-10-20T00:16:18.350Z,101439.25
2022-10-20T00:18:45.863Z,101444.13
2022-10-20T00:21:15.266Z,101445.78
2022-10-20T00:23:42.747Z,101452.13
2022-10-20T00:26:18.934Z,101445.78
2022-10-20T00:28:46.474Z,101449.81
2022-10-20T00:31:13.964Z,101447.06
2022-10-20T00:33:41.415Z,101451.50
2022-10-20T00:36:09.879Z,101453.16
2022-10-20T00:38:37.394Z,101446.03
2022-10-20T00:41:07.901Z,101456.72
2022-10-20T00:43:47.410Z,101440.56
2022-10-20T00:46:17.723Z,101430.66
2022-10-20T00:48:47.169Z,101432.56
2022-10-20T00:51:18.143Z,101429.59
2022-10-20T00:53:45.618Z,101430.66
2022-10-20T00:56:13.511Z,101431.72
2022-10-20T00:58:41.473Z,101423.50
2022-10-20T01:01:11.599Z,101428.13
2022-10-20T01:03:47.058Z,101427.25
2022-10-20T01:06:18.803Z,101434.47
2022-10-20T01:08:46.397Z,101431.72
2022-10-20T01:11:23.743Z,101423.50
2022-10-20T01:14:42.236Z,101417.63
2022-10-20T01:17:27.297Z,101413.56
2022-10-20T01:20:23.692Z,101408.31
2022-10-20T01:23:40.472Z,101408.31
2022-10-20T01:26:19.742Z,101411.69
2022-10-20T01:29:13.489Z,101428.13
2022-10-20T01:31:55.324Z,101430.00
2022-10-20T01:34:33.192Z,101426.25
2022-10-20T01:37:10.288Z,101427.91
2022-10-20T01:39:46.510Z,101425.38
2022-10-20T01:42:16.938Z,101422.66
2022-10-20T01:44:44.404Z,101427.06
2022-10-20T01:47:11.873Z,101428.34
2022-10-20T01:49:44.579Z,101422.00
2022-10-20T01:52:12.245Z,101420.13
2022-10-20T01:54:40.859Z,101417.63
2022-10-20T01:57:26.973Z,101415.09
2022-10-20T02:00:00.109Z,101403.69
2022-10-20T02:03:05.687Z,101400.31
2022-10-20T02:06:00.894Z,101402.00
2022-10-20T02:08:45.843Z,101404.16
2022-10-20T02:11:19.158Z,101415.94
2022-10-20T02:13:46.620Z,101423.09
2022-10-20T02:16:19.514Z,101422.22
2022-10-20T02:18:47.123Z,101413.78
2022-10-20T02:21:16.993Z,101415.69
2022-10-20T02:23:45.010Z,101417.63
2022-10-20T02:26:14.542Z,101414.03
2022-10-20T02:28:45.048Z,101414.03
2022-10-20T02:31:12.431Z,101416.53
2022-10-20T02:33:40.254Z,101419.28
2022-10-20T02:36:10.417Z,101422.00
2022-10-20T02:38:37.857Z,101403.06
2022-10-20T02:41:05.382Z,101404.16
2022-10-20T02:43:32.922Z,101403.31
2022-10-20T02:46:00.332Z,101398.06
2022-10-20T02:48:27.797Z,101398.06
2022-10-20T02:50:55.198Z,101402.72
2022-10-20T02:53:22.658Z,101400.56
2022-10-20T02:55:50.162Z,101403.31
2022-10-20T02:58:17.566Z,101405.19
2022-10-20T03:00:44.989Z,101411.75
2022-10-20T03:03:15.480Z,101411.75
2022-10-20T03:05:44.518Z,101412.81
2022-10-20T03:08:12.036Z,101429.84
2022-10-20T03:10:39.461Z,101427.09
2022-10-20T03:13:06.803Z,101429.84
2022-10-20T03:15:34.205Z,101429.84
2022-10-20T03:18:01.570Z,101427.09
2022-10-20T03:20:28.935Z,101435.31
2022-10-20T03:22:56.295Z,101429.25
2022-10-20T03:25:23.759Z,101431.97
2022-10-20T03:27:52.650Z,101431.97
2022-10-20T03:30:20.037Z,101431.16
2022-10-20T03:32:47.666Z,101424.00
2022-10-20T03:35:15.109Z,101426.75
2022-10-20T03:37:42.582Z,101421.50
2022-10-20T03:40:10.336Z,101428.63
2022-10-20T03:42:38.019Z,101422.81
2022-10-20T03:45:06.159Z,101426.97
2022-10-20T03:47:33.507Z,101434.13
2022-10-20T03:52:37.043Z,101440.19
2022-10-20T03:55:04.955Z,101440.44
2022-10-20T03:57:32.299Z,101442.09
2022-10-20T03:59:59.651Z,101450.53
2022-10-20T04:02:35.007Z,101443.41
2022-10-20T04:05:02.687Z,101449.50
2022-10-20T04:07:30.111Z,101451.41
2022-10-20T04:09:57.596Z,101451.41
2022-10-20T04:12:25.046Z,101445.69
2022-10-20T04:14:52.512Z,101446.75
2022-10-20T04:17:22.690Z,101453.88
2022-10-20T04:19:50.120Z,101456.03
2022-10-20T04:22:17.503Z,101458.53
2022-10-20T04:24:44.988Z,101449.50
2022-10-20T04:27:12.412Z,101457.72
2022-10-20T04:29:39.790Z,101451.84
2022-10-20T04:32:07.213Z,101451.63
2022-10-20T04:34:35.009Z,101453.28
2022-10-20T04:37:04.977Z,101453.28
2022-10-20T04:39:32.506Z,101456.28
2022-10-20T04:42:02.460Z,101452.94
2022-10-20T04:44:29.875Z,101453.75
2022-10-20T04:46:57.287Z,101449.94
2022-10-20T04:49:24.916Z,101448.28
2022-10-20T04:51:52.322Z,101451.03
2022-10-20T04:54:19.686Z,101453.75
2022-10-20T04:56:47.135Z,101453.53
2022-10-20T04:59:17.216Z,101466.38
2022-10-20T05:01:44.620Z,101463.88
2022-10-20T05:04:12.116Z,101460.06
2022-10-20T05:06:39.571Z,101458.75
2022-10-20T05:09:07.204Z,101464.25
2022-10-20T05:11:35.844Z,101474.59
2022-10-20T05:14:03.255Z,101469.97
2022-10-20T05:16:30.663Z,101465.31
2022-10-20T05:18:58.231Z,101463.63
2022-10-20T05:21:28.320Z,101466.38
2022-10-20T05:24:00.210Z,101468.06
2022-10-20T05:26:29.505Z,101473.75
2022-10-20T05:28:57.004Z,101475.66
2022-10-20T05:31:24.415Z,101462.81
2022-10-20T05:33:53.837Z,101464.94
2022-10-20T05:36:26.000Z,101473.97
2022-10-20T05:38:54.186Z,101462.19
2022-10-20T05:41:26.375Z,101469.59
2022-10-20T05:44:01.740Z,101463.88
2022-10-20T05:46:31.608Z,101464.72
2022-10-20T05:49:00.404Z,101470.41
2022-10-20T05:51:30.605Z,101469.59
2022-10-20T05:53:58.531Z,101465.75
2022-10-20T05:56:26.657Z,101471.25
2022-10-20T05:58:54.211Z,101479.22
2022-10-20T06:01:38.795Z,101480.91
2022-10-20T06:04:07.057Z,101482.97
2022-10-20T06:06:34.364Z,101480.44
2022-10-20T06:09:05.108Z,101479.00
2022-10-20T06:11:35.910Z,101491.88
2022-10-20T06:14:07.655Z,101494.84
2022-10-20T06:16:35.128Z,101500.09
2022-10-20T06:19:02.724Z,101499.84
2022-10-20T06:21:31.822Z,101503.66
2022-10-20T06:23:59.890Z,101507.00
2022-10-20T06:26:30.029Z,101509.75
2022-10-20T06:29:03.621Z,101502.34
2022-10-20T06:31:33.362Z,101500.91
2022-10-20T06:34:00.939Z,101492.72
2022-10-20T06:36:28.341Z,101499.84
2022-10-20T06:38:56.756Z,101507.00
2022-10-20T06:41:24.378Z,101502.34
2022-10-20T06:44:00.347Z,101496.66
2022-10-20T06:46:29.117Z,101508.44
2022-10-20T06:48:58.732Z,101515.63
2022-10-20T06:51:26.793Z,101512.00
2022-10-20T06:53:54.251Z,101512.63
2022-10-20T06:56:23.730Z,101516.44
2022-10-20T06:58:52.509Z,101527.19
2022-10-20T07:01:23.414Z,101530.75
2022-10-20T07:03:53.226Z,101539.56
2022-10-20T07:06:25.602Z,101537.91
2022-10-20T07:08:53.851Z,101546.78
2022-10-20T07:11:22.291Z,101533.91
2022-10-20T07:13:49.762Z,101526.50
2022-10-20T07:16:22.339Z,101534.72
2022-10-20T07:18:50.148Z,101522.13
2022-10-20T07:21:19.011Z,101527.59
2022-10-20T07:23:47.889Z,101530.09
2022-10-20T07:26:25.304Z,101531.16
2022-10-20T07:28:57.146Z,101528.22
2022-10-20T07:31:35.565Z,101527.94
2022-10-20T07:36:50.815Z,101526.69
2022-10-20T07:39:18.251Z,101518.69
2022-10-20T07:41:47.762Z,101520.34
2022-10-20T07:44:15.509Z,101521.19
2022-10-20T07:46:42.947Z,101523.69
2022-10-20T07:49:43.469Z,101525.38
2022-10-20T07:51:57.893Z,101527.03
2022-10-20T07:54:25.464Z,101523.47
2022-10-20T07:56:53.103Z,101530.03
2022-10-20T07:59:20.553Z,101532.50
2022-10-20T08:01:48.114Z,101530.16
2022-10-20T08:04:15.656Z,101532.91
2022-10-20T08:06:43.072Z,101533.97
2022-10-20T08:09:10.954Z,101544.47
2022-10-20T08:11:41.378Z,101547.69
2022-10-20T08:14:08.885Z,101549.34
2022-10-20T08:16:37.429Z,101549.34
2022-10-20T08:19:10.789Z,101550.19
2022-10-20T08:21:38.324Z,101556.28
2022-10-20T08:24:06.114Z,101548.91
2022-10-20T08:26:33.499Z,101548.28
2022-10-20T08:29:04.946Z,101540.91
2022-10-20T08:31:32.403Z,101537.94
2022-10-20T08:34:00.274Z,101537.09
2022-10-20T08:36:30.280Z,101542.59
2022-10-20T08:39:03.569Z,101546.38
2022-10-20T08:42:06.298Z,101548.91
2022-10-20T08:44:34.471Z,101561.50
2022-10-20T08:47:02.908Z,101554.38
2022-10-20T08:49:32.074Z,101551.84
2022-10-20T08:52:00.017Z,101560.91
2022-10-20T08:54:27.690Z,101573.34
2022-10-20T08:56:55.091Z,101562.38
2022-10-20T08:59:30.395Z,101565.34
2022-10-20T09:02:00.644Z,101565.34
2022-10-20T09:04:40.485Z,101555.22
2022-10-20T09:07:17.934Z,101558.16
2022-10-20T09:09:45.397Z,101568.06
2022-10-20T09:12:15.055Z,101572.72
2022-10-20T09:14:42.474Z,101570.81
2022-10-20T09:17:16.935Z,101573.56
2022-10-20T09:19:50.080Z,101567.25
2022-10-20T09:22:17.969Z,101576.28
2022-10-20T09:24:45.525Z,101569.13
2022-10-20T09:27:31.429Z,101565.34
2022-10-20T09:29:58.764Z,101561.50
2022-10-20T09:32:48.381Z,101564.50
2022-10-20T09:35:30.052Z,101562.59
2022-10-20T09:38:23.974Z,101564.25
2022-10-20T09:41:13.966Z,101550.81
2022-10-20T09:43:47.532Z,101564.03
2022-10-20T09:46:15.047Z,101558.56
2022-10-20T09:48:47.141Z,101559.38
2022-10-20T09:51:19.202Z,101565.72
2022-10-20T09:53:54.051Z,101557.50
2022-10-20T09:56:29.174Z,101554.97
2022-10-20T09:58:57.083Z,101553.06
2022-10-20T10:01:24.646Z,101550.13
2022-10-20T10:03:53.205Z,101541.28
2022-10-20T10:06:29.242Z,101547.38
2022-10-20T10:09:00.521Z,101550.72
2022-10-20T10:11:35.598Z,101543.56
2022-10-20T10:14:03.509Z,101547.16
2022-10-20T10:16:40.882Z,101545.47
2022-10-20T10:19:08.497Z,101549.63
2022-10-20T10:22:00.970Z,101541.66
2022-10-20T10:24:39.312Z,101543.31
2022-10-20T10:27:23.317Z,101550.72
2022-10-20T10:29:50.799Z,101545.84
2022-10-20T10:32:25.741Z,101546.91
2022-10-20T10:35:17.240Z,101532.38
2022-10-20T10:38:03.389Z,101537.03
2022-10-20T10:40:38.662Z,101539.75
2022-10-20T10:43:16.032Z,101546.06
2022-10-20T10:46:07.450Z,101539.75
2022-10-20T10:48:59.710Z,101538.69
2022-10-20T10:51:39.291Z,101535.09
2022-10-20T10:54:44.203Z,101527.97
2022-10-20T10:57:59.659Z,101516.75
2022-10-20T11:00:42.302Z,101516.75
2022-10-20T11:03:17.970Z,101504.75
2022-10-20T11:06:09.577Z,101506.88
2022-10-20T11:08:40.784Z,101506.88
2022-10-20T11:11:21.888Z,101496.13
2022-10-20T11:13:55.877Z,101493.78
2022-10-20T11:16:40.607Z,101494.00
2022-10-20T11:19:10.912Z,101496.69
2022-10-20T11:21:58.422Z,101497.72
2022-10-20T11:24:44.455Z,101488.91
2022-10-20T11:27:13.983Z,101484.47
2022-10-20T11:29:57.585Z,101484.72
2022-10-20T11:32:56.548Z,101482.81
2022-10-20T11:35:58.363Z,101482.81
2022-10-20T11:38:33.468Z,101481.72
2022-10-20T11:41:17.116Z,101474.59
2022-10-20T11:43:53.579Z,101466.38
2022-10-20T11:46:23.047Z,101466.16
2022-10-20T11:48:51.916Z,101461.72
2022-10-20T11:51:31.187Z,101456.47
2022-10-20T11:54:33.102Z,101451.84
2022-10-20T11:57:29.607Z,101450.75
2022-10-20T12:00:03.860Z,101451.59
2022-10-20T12:03:21.440Z,101452.69
2022-10-20T12:06:16.453Z,101437.91
2022-10-20T12:08:53.597Z,101438.88
2022-10-20T12:11:42.112Z,101429.22
2022-10-20T12:14:15.512Z,101430.31
2022-10-20T12:16:51.873Z,101428.84
2022-10-20T12:19:23.106Z,101425.06
2022-10-20T12:22:13.780Z,101417.88
2022-10-20T12:24:50.927Z,101411.56
2022-10-20T12:27:20.950Z,101406.09
2022-10-20T12:30:00.296Z,101406.09
2022-10-20T12:32:27.681Z,101388.56
2022-10-20T12:34:59.588Z,101377.00
2022-10-20T12:37:33.970Z,101392.41
2022-10-20T12:40:19.364Z,101389.53
2022-10-20T12:42:48.122Z,101389.53
2022-10-20T12:45:18.584Z,101388.13
2022-10-20T12:47:56.311Z,101385.59
2022-10-20T12:50:38.351Z,101383.09
2022-10-20T12:53:23.261Z,101383.09
2022-10-20T12:56:03.886Z,101379.28
2022-10-20T12:59:08.004Z,101388.34
2022-10-20T13:02:09.450Z,101380.13
2022-10-20T13:04:57.794Z,101382.03
2022-10-20T13:07:46.819Z,101367.50
2022-10-20T13:10:33.789Z,101362.03
2022-10-20T13:13:01.146Z,101367.28
2022-10-20T13:15:52.512Z,101365.59
2022-10-20T13:18:27.189Z,101368.34
2022-10-20T13:21:19.628Z,101372.13
2022-10-20T13:23:50.492Z,101373.81
2022-10-20T13:26:32.228Z,101370.25
2022-10-20T13:29:00.380Z,101364.53
2022-10-20T13:31:39.911Z,101370.03
2022-10-20T13:34:20.782Z,101366.66
2022-10-20T13:37:03.504Z,101373.81
2022-10-20T13:39:42.857Z,101371.06
2022-10-20T13:42:19.399Z,101367.28
2022-10-20T13:45:12.576Z,101371.91
2022-10-20T13:47:50.178Z,101376.31
2022-10-20T13:50:21.833Z,101366.41
2022-10-20T13:52:51.216Z,101370.03
2022-10-20T13:55:21.394Z,101367.50
2022-10-20T13:58:01.386Z,101380.97
2022-10-20T14:00:30.334Z,101369.75
2022-10-20T14:03:02.953Z,101369.16
2022-10-20T14:05:36.627Z,101366.19
2022-10-20T14:08:08.572Z,101366.19
2022-10-20T14:10:55.979Z,101367.03
2022-10-20T14:13:26.014Z,101376.09
2022-10-20T14:15:56.774Z,101373.81
2022-10-20T14:18:28.905Z,101376.31
2022-10-20T14:21:03.850Z,101368.94
2022-10-20T14:23:41.906Z,101372.75
2022-10-20T14:26:20.516Z,101371.69
2022-10-20T14:28:48.956Z,101368.94
2022-10-20T14:31:16.442Z,101369.75
2022-10-20T14:33:45.098Z,101363.44
2022-10-20T14:36:20.662Z,101367.28
2022-10-20T14:38:49.573Z,101370.84
2022-10-20T14:41:31.029Z,101362.84
2022-10-20T14:44:10.714Z,101369.16
2022-10-20T14:46:46.121Z,101375.25
2022-10-20T14:49:24.700Z,101373.34
2022-10-20T14:51:56.468Z,101372.50
2022-10-20T14:54:26.450Z,101375.25
2022-10-20T14:57:02.810Z,101375.25
2022-10-20T14:59:32.056Z,101373.34
2022-10-20T15:02:09.628Z,101365.38
2022-10-20T15:04:40.373Z,101366.19
2022-10-20T15:07:15.302Z,101367.28
2022-10-20T15:09:44.733Z,101367.88
2022-10-20T15:12:25.757Z,101357.16
2022-10-20T15:14:54.448Z,101349.97
2022-10-20T15:17:41.931Z,101356.31
2022-10-20T15:20:42.063Z,101351.44
2022-10-20T15:23:13.454Z,101355.00
2022-10-20T15:26:05.068Z,101343.44
2022-10-20T15:28:50.330Z,101349.75
2022-10-20T15:31:23.956Z,101338.78
2022-10-20T15:33:51.895Z,101347.63
2022-10-20T15:36:27.685Z,101340.72
2022-10-20T15:38:56.077Z,101343.22
2022-10-20T15:41:34.123Z,101340.72
2022-10-20T15:44:12.077Z,101340.72
2022-10-20T15:46:39.580Z,101337.75
2022-10-20T15:49:07.064Z,101333.31
2022-10-20T15:51:35.450Z,101334.13
2022-10-20T15:54:03.175Z,101336.06
2022-10-20T15:56:30.614Z,101327.81
2022-10-20T15:58:58.079Z,101332.25
2022-10-20T16:01:25.555Z,101321.28
2022-10-20T16:03:53.156Z,101328.66
2022-10-20T16:06:20.658Z,101324.03
2022-10-20T16:08:48.872Z,101335.00
2022-10-20T16:11:17.264Z,101332.25
2022-10-20T16:13:44.691Z,101341.31
2022-10-20T16:16:13.629Z,101341.53
2022-10-20T16:18:41.139Z,101344.03
2022-10-20T16:21:08.583Z,101340.47
2022-10-20T16:23:40.613Z,101341.31
2022-10-20T16:26:11.147Z,101347.63
2022-10-20T16:28:38.671Z,101347.63
2022-10-20T16:31:07.767Z,101356.06
2022-10-20T16:33:35.424Z,101345.97
2022-10-20T16:38:39.114Z,101351.44
2022-10-20T16:41:12.225Z,101347.38
2022-10-20T16:43:40.736Z,101340.97
2022-10-20T16:46:08.352Z,101346.81
2022-10-20T16:48:37.731Z,101352.41
2022-10-20T16:51:06.738Z,101342.91
2022-10-20T16:53:34.455Z,101345.38
2022-10-20T16:56:01.909Z,101347.06
2022-10-20T16:58:29.483Z,101343.50
2022-10-20T17:01:06.286Z,101343.13
2022-10-20T17:03:34.496Z,101348.84
2022-10-20T17:06:06.480Z,101346.81
2022-10-20T17:08:34.681Z,101348.72
2022-10-20T17:11:06.073Z,101345.63
2022-10-20T17:13:33.849Z,101353.56
2022-10-20T17:16:15.254Z,101359.53
2022-10-20T17:18:43.141Z,101358.47
2022-10-20T17:21:10.770Z,101363.72
2022-10-20T17:23:41.796Z,101356.81
2022-10-20T17:26:21.447Z,101372.06
2022-10-20T17:28:54.974Z,101355.38
2022-10-20T17:31:22.763Z,101364.44
2022-10-20T17:33:51.475Z,101360.25
2022-10-20T17:36:19.150Z,101370.34
2022-10-20T17:38:46.615Z,101360.50
2022-10-20T17:41:15.112Z,101351.19
2022-10-20T17:43:42.536Z,101349.53
2022-10-20T17:46:12.255Z,101338.56
2022-10-20T17:48:39.783Z,101344.03
2022-10-20T17:51:17.161Z,101345.97
2022-10-20T17:53:45.847Z,101342.84
2022-10-20T17:56:14.959Z,101351.66
2022-10-20T17:58:42.944Z,101347.47
2022-10-20T18:01:14.210Z,101351.06
2022-10-20T18:03:41.830Z,101353.81
2022-10-20T18:06:11.033Z,101356.31
2022-10-20T18:08:38.595Z,101350.22
2022-10-20T18:11:13.673Z,101354.84
2022-10-20T18:13:41.201Z,101359.50
2022-10-20T18:16:09.738Z,101355.94
2022-10-20T18:18:37.249Z,101363.09
2022-10-20T18:21:05.013Z,101359.50
2022-10-20T18:23:33.504Z,101364.75
2022-10-20T18:26:08.383Z,101367.72
2022-10-20T18:28:35.894Z,101376.78
2022-10-20T18:31:07.167Z,101371.53
2022-10-20T18:33:34.655Z,101376.19
2022-10-20T18:36:05.143Z,101371.53
2022-10-20T18:38:34.470Z,101374.25
2022-10-20T18:41:08.804Z,101365.44
2022-10-20T18:43:36.061Z,101368.34
2022-10-20T18:46:04.258Z,101368.34
2022-10-20T18:48:32.203Z,101365.00
2022-10-20T18:51:00.590Z,101365.22
2022-10-20T18:53:28.560Z,101369.88
2022-10-20T18:56:05.366Z,101371.19
2022-10-20T18:58:35.206Z,101371.53
2022-10-20T19:01:04.515Z,101364.63
2022-10-20T19:03:33.192Z,101370.09
2022-10-20T19:06:08.677Z,101363.56
2022-10-20T19:08:36.773Z,101351.53
2022-10-20T19:11:09.081Z,101352.81
2022-10-20T19:13:36.709Z,101354.75
2022-10-20T19:16:11.492Z,101356.41
2022-10-20T19:18:42.242Z,101347.94
2022-10-20T19:21:09.775Z,101331.50
2022-10-20T19:23:40.514Z,101334.69
2022-10-20T19:26:15.286Z,101339.13
2022-10-20T19:28:45.323Z,101335.56
2022-10-20T19:31:22.961Z,101334.69
2022-10-20T19:33:52.233Z,101340.78
2022-10-20T19:36:19.919Z,101337.00
2022-10-20T19:38:47.515Z,101333.44
2022-10-20T19:41:15.252Z,101351.53
2022-10-20T19:43:43.687Z,101355.34
2022-10-20T19:46:13.232Z,101364.16
2022-10-20T19:48:41.329Z,101364.16
2022-10-20T19:51:09.902Z,101359.75
2022-10-20T19:53:37.990Z,101355.94
2022-10-20T19:56:06.983Z,101371.31
2022-10-20T19:58:36.397Z,101373.22
2022-10-20T20:01:04.418Z,101372.13
2022-10-20T20:03:32.036Z,101372.13
2022-10-20T20:06:10.212Z,101370.47
2022-10-20T20:08:38.277Z,101377.88
2022-10-20T20:11:06.239Z,101364.63
2022-10-20T20:13:33.753Z,101358.91
2022-10-20T20:16:07.252Z,101366.91
2022-10-20T20:18:35.926Z,101379.75
2022-10-20T20:21:04.465Z,101370.09
2022-10-20T20:23:47.563Z,101379.16
2022-10-20T20:26:21.779Z,101380.84
2022-10-20T20:28:52.036Z,101381.06
2022-10-20T20:31:20.705Z,101366.53
2022-10-20T20:33:49.127Z,101372.00
2022-10-20T20:36:16.705Z,101374.16
2022-10-20T20:38:44.189Z,101379.41
2022-10-20T20:41:14.770Z,101377.94
2022-10-20T20:43:45.063Z,101383.19
2022-10-20T20:46:15.078Z,101376.06
2022-10-20T20:48:42.702Z,101370.56
2022-10-20T20:51:10.240Z,101385.09
2022-10-20T20:53:38.030Z,101390.59
2022-10-20T20:56:10.340Z,101382.81
2022-10-20T20:58:38.915Z,101374.59
2022-10-20T21:01:08.060Z,101374.84
2022-10-20T21:03:35.797Z,101388.56
2022-10-20T21:06:10.584Z,101390.44
2022-10-20T21:08:38.844Z,101396.78
2022-10-20T21:11:07.159Z,101397.59
2022-10-20T21:13:35.068Z,101390.66
2022-10-20T21:16:14.115Z,101404.34
2022-10-20T21:18:42.454Z,101405.22
2022-10-20T21:23:44.252Z,101410.47
2022-10-20T21:26:12.869Z,101402.47
2022-10-20T21:28:40.647Z,101403.53
2022-10-20T21:31:09.157Z,101395.09
2022-10-20T21:33:36.696Z,101406.03
2022-10-20T21:36:05.970Z,101397.00
2022-10-20T21:38:33.791Z,101395.09
2022-10-20T21:41:02.921Z,101387.91
2022-10-20T21:43:31.436Z,101385.19
2022-10-20T21:46:25.991Z,101385.66
2022-10-20T21:48:54.944Z,101378.28
2022-10-20T21:51:30.046Z,101384.22
2022-10-20T21:54:01.585Z,101372.66
2022-10-20T21:56:29.069Z,101369.06
2022-10-20T21:58:56.526Z,101368.63
2022-10-20T22:01:25.176Z,101373.28
2022-10-20T22:03:53.294Z,101369.44
2022-10-20T22:06:22.445Z,101365.66
2022-10-20T22:08:51.198Z,101369.44
2022-10-20T22:11:27.372Z,101363.38
2022-10-20T22:13:55.055Z,101363.38
2022-10-20T22:16:25.237Z,101364.44
2022-10-20T22:18:56.728Z,101358.97
2022-10-20T22:21:24.420Z,101358.97
2022-10-20T22:23:57.643Z,101365.50
2022-10-20T22:26:28.864Z,101365.50
2022-10-20T22:28:56.977Z,101360.63
2022-10-20T22:31:24.761Z,101355.75
2022-10-20T22:33:54.924Z,101350.50
2022-10-20T22:36:22.593Z,101348.84
2022-10-20T22:38:50.041Z,101355.38
2022-10-20T22:41:17.490Z,101358.72
2022-10-20T22:43:44.985Z,101358.97
2022-10-20T22:46:12.474Z,101354.31
2022-10-20T22:48:39.990Z,101338.72
2022-10-20T22:51:08.265Z,101346.09
2022-10-20T22:53:36.601Z,101346.72
2022-10-20T23:08:55.896Z,101335.00
2022-10-20T23:11:23.670Z,101333.75
2022-10-20T23:13:57.569Z,101337.88
2022-10-20T23:18:57.381Z,101336.13
2022-10-20T23:21:24.812Z,101335.25
2022-10-20T23:23:52.196Z,101322.44
2022-10-20T23:26:19.574Z,101326.81
2022-10-20T23:28:48.687Z,101316.94
2022-10-20T23:31:18.024Z,101310.59
2022-10-20T23:33:45.894Z,101307.28
2022-10-20T23:36:14.038Z,101309.19
2022-10-20T23:38:42.199Z,101307.53
2022-10-20T23:41:09.774Z,101322.28
2022-10-20T23:43:37.182Z,101322.28
2022-10-20T23:46:04.818Z,101314.06
2022-10-20T23:48:32.239Z,101314.88
2022-10-20T23:50:59.647Z,101314.66
2022-10-20T23:53:27.909Z,101319.53
2022-10-20T23:55:58.360Z,101331.31
2022-10-20T23:58:26.008Z,101341.22
